sensor_id;sensor_type;location;lat;lon;timestamp;pressure;altitude;pressure_sealevel;temperature;humidity
44044;BME280;29709;52.396;16.796;2024-01-30T00:02:14;103222.59;;;1.88;77.71
44044;BME280;29709;52.396;16.796;2024-01-30T00:05:28;103222.59;;;1.88;77.78
44044;BME280;29709;52.396;16.796;2024-01-30T00:08:41;103226.21;;;1.87;77.35
44044;BME280;29709;52.396;16.796;2024-01-30T00:11:55;103220.88;;;1.84;76.98
44044;BME280;29709;52.396;16.796;2024-01-30T00:15:08;103224.55;;;1.83;76.73
44044;BME280;29709;52.396;16.796;2024-01-30T00:18:23;103226.32;;;1.84;76.62
44044;BME280;29709;52.396;16.796;2024-01-30T00:21:36;103220.75;;;1.89;77.59
44044;BME280;29709;52.396;16.796;2024-01-30T00:24:49;103214.22;;;1.94;77.42
44044;BME280;29709;52.396;16.796;2024-01-30T00:28:03;103209.55;;;1.98;77.04
44044;BME280;29709;52.396;16.796;2024-01-30T00:31:16;103212.18;;;2.01;77.13
44044;BME280;29709;52.396;16.796;2024-01-30T00:34:29;103214.95;;;1.99;77.19
44044;BME280;29709;52.396;16.796;2024-01-30T00:37:42;103211.38;;;1.97;77.01
44044;BME280;29709;52.396;16.796;2024-01-30T00:40:56;103208.64;;;1.99;77.25
44044;BME280;29709;52.396;16.796;2024-01-30T00:44:09;103212.24;;;1.99;77.04
44044;BME280;29709;52.396;16.796;2024-01-30T00:47:22;103219.27;;;2.05;77.17
44044;BME280;29709;52.396;16.796;2024-01-30T00:50:35;103220.88;;;2.11;77.49
44044;BME280;29709;52.396;16.796;2024-01-30T00:53:48;103212.56;;;2.15;77.00
44044;BME280;29709;52.396;16.796;2024-01-30T00:57:02;103209.85;;;2.15;77.56
44044;BME280;29709;52.396;16.796;2024-01-30T01:00:16;103212.56;;;2.15;77.57
44044;BME280;29709;52.396;16.796;2024-01-30T01:03:30;103213.39;;;2.17;77.63
44044;BME280;29709;52.396;16.796;2024-01-30T01:06:43;103211.41;;;2.22;77.26
44044;BME280;29709;52.396;16.796;2024-01-30T01:09:56;103207.63;;;2.26;76.90
44044;BME280;29709;52.396;16.796;2024-01-30T01:13:10;103195.84;;;2.27;77.56
44044;BME280;29709;52.396;16.796;2024-01-30T01:16:23;103205.59;;;2.33;77.38
44044;BME280;29709;52.396;16.796;2024-01-30T01:19:36;103197.20;;;2.39;77.11
44044;BME280;29709;52.396;16.796;2024-01-30T01:22:49;103197.94;;;2.44;76.81
44044;BME280;29709;52.396;16.796;2024-01-30T01:26:03;103195.35;;;2.41;76.71
44044;BME280;29709;52.396;16.796;2024-01-30T01:29:16;103198.06;;;2.41;76.89
44044;BME280;29709;52.396;16.796;2024-01-30T01:32:29;103200.98;;;2.35;76.57
44044;BME280;29709;52.396;16.796;2024-01-30T01:35:43;103199.34;;;2.31;76.68
44044;BME280;29709;52.396;16.796;2024-01-30T01:38:56;103193.84;;;2.33;76.47
44044;BME280;29709;52.396;16.796;2024-01-30T01:42:09;103208.46;;;2.28;76.54
44044;BME280;29709;52.396;16.796;2024-01-30T01:45:22;103196.07;;;2.21;76.80
44044;BME280;29709;52.396;16.796;2024-01-30T01:48:36;103204.21;;;2.21;77.10
44044;BME280;29709;52.396;16.796;2024-01-30T01:51:55;103202.15;;;2.28;76.38
44044;BME280;29709;52.396;16.796;2024-01-30T01:55:13;103204.53;;;2.37;75.91
44044;BME280;29709;52.396;16.796;2024-01-30T01:58:27;103206.14;;;2.43;76.02
44044;BME280;29709;52.396;16.796;2024-01-30T02:01:42;103204.19;;;2.46;75.43
44044;BME280;29709;52.396;16.796;2024-01-30T02:04:57;103202.41;;;2.45;75.29
44044;BME280;29709;52.396;16.796;2024-01-30T02:08:10;103195.03;;;2.49;75.13
44044;BME280;29709;52.396;16.796;2024-01-30T02:11:24;103193.40;;;2.45;74.85
44044;BME280;29709;52.396;16.796;2024-01-30T02:14:45;103192.58;;;2.43;74.83
44044;BME280;29709;52.396;16.796;2024-01-30T02:17:59;103198.14;;;2.38;75.16
44044;BME280;29709;52.396;16.796;2024-01-30T02:21:15;103186.81;;;2.27;75.27
44044;BME280;29709;52.396;16.796;2024-01-30T02:24:29;103192.42;;;2.22;75.68
44044;BME280;29709;52.396;16.796;2024-01-30T02:27:42;103193.52;;;2.17;75.72
44044;BME280;29709;52.396;16.796;2024-01-30T02:30:56;103193.63;;;2.14;75.40
44044;BME280;29709;52.396;16.796;2024-01-30T02:34:09;103192.02;;;2.08;75.68
44044;BME280;29709;52.396;16.796;2024-01-30T02:37:22;103192.13;;;2.05;75.49
44044;BME280;29709;52.396;16.796;2024-01-30T02:40:35;103187.59;;;2.06;75.76
44044;BME280;29709;52.396;16.796;2024-01-30T02:43:49;103181.41;;;2.02;75.83
44044;BME280;29709;52.396;16.796;2024-01-30T02:47:02;103186.83;;;2.02;75.73
44044;BME280;29709;52.396;16.796;2024-01-30T02:57:16;103185.06;;;2.01;75.61
44044;BME280;29709;52.396;16.796;2024-01-30T03:04:12;103176.69;;;2.07;75.47
44044;BME280;29709;52.396;16.796;2024-01-30T03:07:28;103176.74;;;2.06;75.08
44044;BME280;29709;52.396;16.796;2024-01-30T03:10:48;103175.91;;;2.03;75.54
44044;BME280;29709;52.396;16.796;2024-01-30T03:14:03;103170.31;;;2.08;75.15
44044;BME280;29709;52.396;16.796;2024-01-30T03:17:18;103169.27;;;2.12;74.80
44044;BME280;29709;52.396;16.796;2024-01-30T03:20:33;103170.31;;;2.08;75.37
44044;BME280;29709;52.396;16.796;2024-01-30T03:23:46;103170.44;;;2.05;74.95
44044;BME280;29709;52.396;16.796;2024-01-30T03:27:06;103168.79;;;2.01;75.16
44044;BME280;29709;52.396;16.796;2024-01-30T03:30:20;103166.02;;;2.02;75.18
44044;BME280;29709;52.396;16.796;2024-01-30T03:33:36;103173.02;;;2.08;75.16
44044;BME280;29709;52.396;16.796;2024-01-30T03:36:55;103171.94;;;2.14;74.93
44044;BME280;29709;52.396;16.796;2024-01-30T03:40:09;103168.15;;;2.18;75.10
44044;BME280;29709;52.396;16.796;2024-01-30T03:43:22;103169.83;;;2.22;75.07
44044;BME280;29709;52.396;16.796;2024-01-30T03:46:35;103169.70;;;2.25;75.00
44044;BME280;29709;52.396;16.796;2024-01-30T03:49:48;103169.59;;;2.28;75.14
44044;BME280;29709;52.396;16.796;2024-01-30T03:53:04;103170.25;;;2.35;75.06
44044;BME280;29709;52.396;16.796;2024-01-30T03:56:18;103168.36;;;2.37;75.01
44044;BME280;29709;52.396;16.796;2024-01-30T03:59:42;103170.95;;;2.40;74.92
44044;BME280;29709;52.396;16.796;2024-01-30T04:03:09;103169.91;;;2.44;74.96
44044;BME280;29709;52.396;16.796;2024-01-30T04:06:37;103163.41;;;2.48;74.65
44044;BME280;29709;52.396;16.796;2024-01-30T04:09:56;103169.66;;;2.50;74.80
44044;BME280;29709;52.396;16.796;2024-01-30T04:13:34;103173.98;;;2.55;74.52
44044;BME280;29709;52.396;16.796;2024-01-30T04:16:52;103171.13;;;2.58;74.25
44044;BME280;29709;52.396;16.796;2024-01-30T04:20:06;103168.42;;;2.58;74.74
44044;BME280;29709;52.396;16.796;2024-01-30T04:23:19;103171.20;;;2.57;74.88
44044;BME280;29709;52.396;16.796;2024-01-30T04:26:33;103177.65;;;2.54;74.70
44044;BME280;29709;52.396;16.796;2024-01-30T04:29:47;103176.04;;;2.49;74.38
44044;BME280;29709;52.396;16.796;2024-01-30T04:33:03;103179.00;;;2.43;74.68
44044;BME280;29709;52.396;16.796;2024-01-30T04:36:19;103178.17;;;2.41;74.80
44044;BME280;29709;52.396;16.796;2024-01-30T04:39:39;103178.11;;;2.42;74.92
44044;BME280;29709;52.396;16.796;2024-01-30T04:42:56;103177.17;;;2.43;74.98
44044;BME280;29709;52.396;16.796;2024-01-30T04:46:12;103184.30;;;2.46;75.08
44044;BME280;29709;52.396;16.796;2024-01-30T04:49:25;103179.82;;;2.45;75.17
44044;BME280;29709;52.396;16.796;2024-01-30T04:52:40;103173.38;;;2.47;75.02
44044;BME280;29709;52.396;16.796;2024-01-30T04:55:57;103172.37;;;2.50;75.36
44044;BME280;29709;52.396;16.796;2024-01-30T04:59:18;103172.34;;;2.51;75.22
44044;BME280;29709;52.396;16.796;2024-01-30T05:02:37;103175.00;;;2.53;74.97
44044;BME280;29709;52.396;16.796;2024-01-30T05:05:50;103174.93;;;2.54;75.20
44044;BME280;29709;52.396;16.796;2024-01-30T05:09:08;103177.52;;;2.57;75.16
44044;BME280;29709;52.396;16.796;2024-01-30T05:12:22;103173.91;;;2.57;75.20
44044;BME280;29709;52.396;16.796;2024-01-30T05:15:35;103180.14;;;2.60;75.44
44044;BME280;29709;52.396;16.796;2024-01-30T05:18:49;103182.66;;;2.65;75.00
44044;BME280;29709;52.396;16.796;2024-01-30T05:22:04;103184.30;;;2.69;74.92
44044;BME280;29709;52.396;16.796;2024-01-30T05:25:17;103179.82;;;2.68;74.70
44044;BME280;29709;52.396;16.796;2024-01-30T05:28:33;103182.66;;;2.65;74.71
44044;BME280;29709;52.396;16.796;2024-01-30T05:31:46;103180.14;;;2.60;74.75
44044;BME280;29709;52.396;16.796;2024-01-30T05:35:00;103191.03;;;2.59;74.76
44044;BME280;29709;52.396;16.796;2024-01-30T05:38:16;103185.67;;;2.57;74.91
44044;BME280;29709;52.396;16.796;2024-01-30T05:41:29;103180.23;;;2.57;74.80
44044;BME280;29709;52.396;16.796;2024-01-30T05:44:43;103187.43;;;2.58;74.95
44044;BME280;29709;52.396;16.796;2024-01-30T05:47:56;103182.01;;;2.58;74.73
44044;BME280;29709;52.396;16.796;2024-01-30T05:51:10;103181.94;;;2.60;74.88
44044;BME280;29709;52.396;16.796;2024-01-30T05:54:23;103187.34;;;2.62;74.80
44044;BME280;29709;52.396;16.796;2024-01-30T05:57:37;103178.17;;;2.64;74.75
44044;BME280;29709;52.396;16.796;2024-01-30T06:04:18;103180.01;;;2.64;74.74
44044;BME280;29709;52.396;16.796;2024-01-30T06:07:32;103179.06;;;2.65;74.95
44044;BME280;29709;52.396;16.796;2024-01-30T06:10:46;103183.48;;;2.67;74.71
44044;BME280;29709;52.396;16.796;2024-01-30T06:14:01;103181.66;;;2.68;74.66
44044;BME280;29709;52.396;16.796;2024-01-30T06:17:15;103186.05;;;2.72;74.54
44044;BME280;29709;52.396;16.796;2024-01-30T06:20:30;103179.73;;;2.71;74.54
44044;BME280;29709;52.396;16.796;2024-01-30T06:23:45;103172.40;;;2.73;74.43
44044;BME280;29709;52.396;16.796;2024-01-30T06:26:59;103177.76;;;2.75;74.56
44044;BME280;29709;52.396;16.796;2024-01-30T06:30:12;103179.53;;;2.76;74.18
44044;BME280;29709;52.396;16.796;2024-01-30T06:33:26;103182.99;;;2.79;74.46
44044;BME280;29709;52.396;16.796;2024-01-30T06:40:12;103183.52;;;2.89;74.46
44044;BME280;29709;52.396;16.796;2024-01-30T06:43:29;103180.71;;;2.92;74.40
44044;BME280;29709;52.396;16.796;2024-01-30T06:46:49;103175.37;;;2.89;73.85
44044;BME280;29709;52.396;16.796;2024-01-30T06:50:07;103178.15;;;2.87;73.86
44044;BME280;29709;52.396;16.796;2024-01-30T06:53:20;103176.32;;;2.88;73.96
44044;BME280;29709;52.396;16.796;2024-01-30T06:56:37;103182.57;;;2.90;74.17
44044;BME280;29709;52.396;16.796;2024-01-30T06:59:53;103177.99;;;2.92;74.02
44044;BME280;29709;52.396;16.796;2024-01-30T07:03:55;103179.76;;;2.93;73.93
44044;BME280;29709;52.396;16.796;2024-01-30T07:06:44;103181.47;;;2.96;74.10
44044;BME280;29709;52.396;16.796;2024-01-30T07:10:00;103181.20;;;3.02;73.92
44044;BME280;29709;52.396;16.796;2024-01-30T07:13:40;103190.27;;;3.02;74.12
44044;BME280;29709;52.396;16.796;2024-01-30T07:16:53;103179.00;;;3.11;73.73
44044;BME280;29709;52.396;16.796;2024-01-30T07:20:07;103186.91;;;3.17;73.76
44044;BME280;29709;52.396;16.796;2024-01-30T07:27:04;103193.62;;;3.31;73.47
44044;BME280;29709;52.396;16.796;2024-01-30T07:30:22;103192.42;;;3.38;73.34
44044;BME280;29709;52.396;16.796;2024-01-30T07:33:39;103191.09;;;3.48;73.54
44044;BME280;29709;52.396;16.796;2024-01-30T07:40:31;103192.26;;;3.63;73.14
44044;BME280;29709;52.396;16.796;2024-01-30T07:43:56;103189.30;;;3.69;72.96
44044;BME280;29709;52.396;16.796;2024-01-30T07:47:10;103181.88;;;3.72;73.03
44044;BME280;29709;52.396;16.796;2024-01-30T07:50:23;103189.09;;;3.73;72.81
44044;BME280;29709;52.396;16.796;2024-01-30T07:53:36;103188.02;;;3.78;72.94
44044;BME280;29709;52.396;16.796;2024-01-30T07:56:49;103184.28;;;3.80;72.79
44044;BME280;29709;52.396;16.796;2024-01-30T08:00:03;103177.80;;;3.83;72.82
44044;BME280;29709;52.396;16.796;2024-01-30T08:03:21;103178.50;;;3.88;72.79
44044;BME280;29709;52.396;16.796;2024-01-30T08:06:34;103167.55;;;3.89;72.87
44044;BME280;29709;52.396;16.796;2024-01-30T08:09:48;103184.55;;;3.94;72.62
44044;BME280;29709;52.396;16.796;2024-01-30T08:13:01;103179.87;;;3.98;72.73
44044;BME280;29709;52.396;16.796;2024-01-30T08:16:15;103177.75;;;4.04;72.60
44044;BME280;29709;52.396;16.796;2024-01-30T08:19:28;103184.55;;;4.15;72.75
44044;BME280;29709;52.396;16.796;2024-01-30T08:22:41;103182.23;;;4.26;72.30
44044;BME280;29709;52.396;16.796;2024-01-30T08:25:54;103178.21;;;4.34;72.04
44044;BME280;29709;52.396;16.796;2024-01-30T08:29:09;103181.47;;;4.43;72.26
44044;BME280;29709;52.396;16.796;2024-01-30T08:32:23;103176.41;;;4.54;72.29
44044;BME280;29709;52.396;16.796;2024-01-30T08:35:36;103178.55;;;4.66;72.15
44044;BME280;29709;52.396;16.796;2024-01-30T08:38:51;103176.35;;;4.74;71.64
44044;BME280;29709;52.396;16.796;2024-01-30T08:42:04;103178.65;;;4.83;71.27
44044;BME280;29709;52.396;16.796;2024-01-30T08:45:18;103173.80;;;4.90;70.91
44044;BME280;29709;52.396;16.796;2024-01-30T08:48:32;103172.36;;;5.00;70.73
44044;BME280;29709;52.396;16.796;2024-01-30T08:51:46;103180.42;;;5.03;70.12
44044;BME280;29709;52.396;16.796;2024-01-30T08:55:00;103182.90;;;5.08;70.13
44044;BME280;29709;52.396;16.796;2024-01-30T08:58:13;103181.42;;;5.19;70.00
44044;BME280;29709;52.396;16.796;2024-01-30T09:01:34;103182.98;;;5.25;70.07
44044;BME280;29709;52.396;16.796;2024-01-30T09:04:47;103173.55;;;5.32;69.50
44044;BME280;29709;52.396;16.796;2024-01-30T09:08:00;103184.29;;;5.35;69.10
44044;BME280;29709;52.396;16.796;2024-01-30T09:11:15;103178.30;;;5.46;69.67
44044;BME280;29709;52.396;16.796;2024-01-30T09:14:29;103184.81;;;5.61;69.97
44044;BME280;29709;52.396;16.796;2024-01-30T09:17:42;103176.08;;;5.71;68.69
44044;BME280;29709;52.396;16.796;2024-01-30T09:20:56;103169.18;;;5.82;68.95
44044;BME280;29709;52.396;16.796;2024-01-30T09:24:10;103163.41;;;5.88;68.51
44044;BME280;29709;52.396;16.796;2024-01-30T09:27:24;103162.61;;;5.86;67.51
44044;BME280;29709;52.396;16.796;2024-01-30T09:30:37;103152.41;;;5.89;68.12
44044;BME280;29709;52.396;16.796;2024-01-30T09:33:50;103149.24;;;5.98;68.21
44044;BME280;29709;52.396;16.796;2024-01-30T09:37:07;103153.32;;;6.07;67.82
44044;BME280;29709;52.396;16.796;2024-01-30T09:40:20;103149.28;;;6.14;68.15
44044;BME280;29709;52.396;16.796;2024-01-30T09:43:34;103149.63;;;6.25;67.33
44044;BME280;29709;52.396;16.796;2024-01-30T09:46:48;103148.22;;;6.34;66.89
44044;BME280;29709;52.396;16.796;2024-01-30T09:50:03;103147.41;;;6.32;66.45
44044;BME280;29709;52.396;16.796;2024-01-30T09:53:19;103143.40;;;6.39;66.56
44044;BME280;29709;52.396;16.796;2024-01-30T09:56:32;103145.16;;;6.40;66.07
44044;BME280;29709;52.396;16.796;2024-01-30T09:59:45;103141.82;;;6.51;66.75
44044;BME280;29709;52.396;16.796;2024-01-30T10:03:04;103143.09;;;6.61;66.15
44044;BME280;29709;52.396;16.796;2024-01-30T10:06:18;103140.97;;;6.66;65.72
44044;BME280;29709;52.396;16.796;2024-01-30T10:09:34;103144.42;;;6.70;65.28
44044;BME280;29709;52.396;16.796;2024-01-30T10:12:48;103136.13;;;6.71;65.31
44044;BME280;29709;52.396;16.796;2024-01-30T10:16:02;103134.89;;;6.77;64.65
44044;BME280;29709;52.396;16.796;2024-01-30T10:19:18;103134.28;;;6.87;64.61
44044;BME280;29709;52.396;16.796;2024-01-30T10:22:32;103127.17;;;7.01;65.14
44044;BME280;29709;52.396;16.796;2024-01-30T10:25:45;103123.62;;;7.14;64.32
44044;BME280;29709;52.396;16.796;2024-01-30T10:28:59;103125.91;;;7.22;64.11
44044;BME280;29709;52.396;16.796;2024-01-30T10:32:12;103126.06;;;7.35;63.56
44044;BME280;29709;52.396;16.796;2024-01-30T10:35:26;103111.22;;;7.39;63.04
44044;BME280;29709;52.396;16.796;2024-01-30T10:38:42;103117.52;;;7.41;63.09
44044;BME280;29709;52.396;16.796;2024-01-30T10:42:04;103111.76;;;7.45;63.21
44044;BME280;29709;52.396;16.796;2024-01-30T10:45:18;103101.04;;;7.57;63.09
44044;BME280;29709;52.396;16.796;2024-01-30T10:48:32;103100.48;;;7.66;62.80
44044;BME280;29709;52.396;16.796;2024-01-30T10:51:52;103103.34;;;7.78;62.68
44044;BME280;29709;52.396;16.796;2024-01-30T10:55:07;103100.82;;;7.90;62.31
44044;BME280;29709;52.396;16.796;2024-01-30T10:58:22;103097.62;;;7.97;62.13
44044;BME280;29709;52.396;16.796;2024-01-30T11:01:35;103086.67;;;8.11;62.34
44044;BME280;29709;52.396;16.796;2024-01-30T11:04:50;103092.76;;;8.17;61.31
44044;BME280;29709;52.396;16.796;2024-01-30T11:08:12;103089.04;;;8.18;61.39
44044;BME280;29709;52.396;16.796;2024-01-30T11:11:26;103090.00;;;8.31;61.66
44044;BME280;29709;52.396;16.796;2024-01-30T11:14:40;103086.15;;;8.35;61.00
44044;BME280;29709;52.396;16.796;2024-01-30T11:17:53;103077.05;;;8.34;60.80
44044;BME280;29709;52.396;16.796;2024-01-30T11:21:07;103068.42;;;8.41;60.42
44044;BME280;29709;52.396;16.796;2024-01-30T11:24:20;103064.41;;;8.46;59.92
44044;BME280;29709;52.396;16.796;2024-01-30T11:27:37;103061.15;;;8.54;59.34
44044;BME280;29709;52.396;16.796;2024-01-30T11:30:50;103063.50;;;8.60;59.36
44044;BME280;29709;52.396;16.796;2024-01-30T11:34:05;103055.88;;;8.65;59.09
44044;BME280;29709;52.396;16.796;2024-01-30T11:37:20;103046.46;;;8.69;59.05
44044;BME280;29709;52.396;16.796;2024-01-30T11:40:36;103053.38;;;8.75;59.15
44044;BME280;29709;52.396;16.796;2024-01-30T11:43:53;103042.79;;;8.83;59.47
44044;BME280;29709;52.396;16.796;2024-01-30T11:47:06;103044.16;;;8.90;59.19
44044;BME280;29709;52.396;16.796;2024-01-30T11:50:21;103034.27;;;8.87;59.11
44044;BME280;29709;52.396;16.796;2024-01-30T11:53:35;103031.88;;;8.95;58.99
44044;BME280;29709;52.396;16.796;2024-01-30T11:56:48;103034.20;;;9.02;59.32
44044;BME280;29709;52.396;16.796;2024-01-30T12:00:02;103032.83;;;9.09;59.14
44044;BME280;29709;52.396;16.796;2024-01-30T12:03:22;103025.13;;;9.14;59.39
44044;BME280;29709;52.396;16.796;2024-01-30T12:06:35;103020.88;;;9.22;59.19
44044;BME280;29709;52.396;16.796;2024-01-30T12:09:53;103018.80;;;9.26;59.06
44044;BME280;29709;52.396;16.796;2024-01-30T12:13:07;103015.65;;;9.32;58.83
44044;BME280;29709;52.396;16.796;2024-01-30T12:16:20;103004.56;;;9.34;58.69
44044;BME280;29709;52.396;16.796;2024-01-30T12:19:34;103003.27;;;9.39;58.55
44044;BME280;29709;52.396;16.796;2024-01-30T12:22:49;103003.04;;;9.42;58.73
44044;BME280;29709;52.396;16.796;2024-01-30T12:26:04;103009.42;;;9.55;58.61
44044;BME280;29709;52.396;16.796;2024-01-30T12:29:20;103004.52;;;9.61;58.32
44044;BME280;29709;52.396;16.796;2024-01-30T12:32:40;102996.47;;;9.58;58.31
44044;BME280;29709;52.396;16.796;2024-01-30T12:35:56;102998.22;;;9.59;58.42
44044;BME280;29709;52.396;16.796;2024-01-30T12:39:13;102992.19;;;9.66;58.29
44044;BME280;29709;52.396;16.796;2024-01-30T12:42:28;102990.02;;;9.71;58.45
44044;BME280;29709;52.396;16.796;2024-01-30T12:45:42;102985.52;;;9.70;58.10
44044;BME280;29709;52.396;16.796;2024-01-30T12:48:55;102985.40;;;9.72;57.82
44044;BME280;29709;52.396;16.796;2024-01-30T12:52:08;102986.28;;;9.72;56.97
44044;BME280;29709;52.396;16.796;2024-01-30T12:55:24;102976.05;;;9.74;57.82
44044;BME280;29709;52.396;16.796;2024-01-30T12:58:41;102975.41;;;9.83;57.33
44044;BME280;29709;52.396;16.796;2024-01-30T13:01:56;102971.78;;;9.83;57.17
44044;BME280;29709;52.396;16.796;2024-01-30T13:05:10;102972.42;;;9.87;56.70
44044;BME280;29709;52.396;16.796;2024-01-30T13:08:23;102971.31;;;9.89;56.65
44044;BME280;29709;52.396;16.796;2024-01-30T13:11:37;102973.18;;;9.89;57.04
44044;BME280;29709;52.396;16.796;2024-01-30T13:14:50;102978.14;;;9.96;57.46
44044;BME280;29709;52.396;16.796;2024-01-30T13:18:03;102975.60;;;10.06;57.42
44044;BME280;29709;52.396;16.796;2024-01-30T13:21:18;102976.91;;;10.13;57.32
44044;BME280;29709;52.396;16.796;2024-01-30T13:24:32;102966.80;;;10.13;57.50
44044;BME280;29709;52.396;16.796;2024-01-30T13:27:45;102973.92;;;10.16;57.17
44044;BME280;29709;52.396;16.796;2024-01-30T13:30:59;102956.34;;;10.19;57.41
44044;BME280;29709;52.396;16.796;2024-01-30T13:34:12;102953.70;;;10.17;57.18
44044;BME280;29709;52.396;16.796;2024-01-30T13:37:26;102949.44;;;10.13;56.57
44044;BME280;29709;52.396;16.796;2024-01-30T13:40:40;102951.63;;;10.08;56.91
44044;BME280;29709;52.396;16.796;2024-01-30T13:43:53;102948.37;;;10.03;57.08
44044;BME280;29709;52.396;16.796;2024-01-30T13:47:07;102953.17;;;9.99;56.94
44044;BME280;29709;52.396;16.796;2024-01-30T13:50:20;102954.52;;;9.94;57.15
44044;BME280;29709;52.396;16.796;2024-01-30T13:53:34;102951.13;;;9.90;57.32
44044;BME280;29709;52.396;16.796;2024-01-30T13:56:47;102949.80;;;9.83;57.16
44044;BME280;29709;52.396;16.796;2024-01-30T14:00:00;102950.23;;;9.77;57.04
44044;BME280;29709;52.396;16.796;2024-01-30T14:03:14;102936.74;;;9.74;57.60
44044;BME280;29709;52.396;16.796;2024-01-30T14:06:28;102942.34;;;9.72;58.02
44044;BME280;29709;52.396;16.796;2024-01-30T14:09:41;102938.84;;;9.70;58.37
44044;BME280;29709;52.396;16.796;2024-01-30T14:12:54;102937.39;;;9.65;58.54
44044;BME280;29709;52.396;16.796;2024-01-30T14:16:10;102930.56;;;9.58;58.68
44044;BME280;29709;52.396;16.796;2024-01-30T14:19:23;102934.12;;;9.60;58.23
44044;BME280;29709;52.396;16.796;2024-01-30T14:22:37;102925.09;;;9.58;58.74
44044;BME280;29709;52.396;16.796;2024-01-30T14:25:50;102925.43;;;9.53;58.64
44044;BME280;29709;52.396;16.796;2024-01-30T14:29:05;102917.54;;;9.48;58.35
44044;BME280;29709;52.396;16.796;2024-01-30T14:32:18;102929.05;;;9.41;57.89
44044;BME280;29709;52.396;16.796;2024-01-30T14:35:31;102922.01;;;9.37;58.34
44044;BME280;29709;52.396;16.796;2024-01-30T14:38:45;102942.32;;;9.34;58.70
44044;BME280;29709;52.396;16.796;2024-01-30T14:41:58;102939.04;;;9.29;58.78
44044;BME280;29709;52.396;16.796;2024-01-30T14:45:11;102944.48;;;9.16;59.02
44044;BME280;29709;52.396;16.796;2024-01-30T14:48:25;102947.78;;;9.09;59.46
44044;BME280;29709;52.396;16.796;2024-01-30T14:51:38;102959.92;;;9.05;59.50
44044;BME280;29709;52.396;16.796;2024-01-30T14:54:51;102951.16;;;9.00;59.99
44044;BME280;29709;52.396;16.796;2024-01-30T14:58:05;102947.18;;;8.91;59.91
44044;BME280;29709;52.396;16.796;2024-01-30T15:01:18;102943.97;;;8.84;60.36
44044;BME280;29709;52.396;16.796;2024-01-30T15:04:32;102941.55;;;8.80;60.63
44044;BME280;29709;52.396;16.796;2024-01-30T15:07:45;102951.74;;;8.78;60.95
44044;BME280;29709;52.396;16.796;2024-01-30T15:10:59;102950.30;;;8.72;60.89
44044;BME280;29709;52.396;16.796;2024-01-30T15:14:12;102947.55;;;8.72;61.36
44044;BME280;29709;52.396;16.796;2024-01-30T15:17:26;102952.66;;;8.64;61.30
44044;BME280;29709;52.396;16.796;2024-01-30T15:20:39;102944.27;;;8.53;61.65
44044;BME280;29709;52.396;16.796;2024-01-30T15:23:52;102947.85;;;8.41;61.79
44044;BME280;29709;52.396;16.796;2024-01-30T15:27:06;102951.05;;;8.33;62.20
44044;BME280;29709;52.396;16.796;2024-01-30T15:30:20;102951.37;;;8.28;62.04
44044;BME280;29709;52.396;16.796;2024-01-30T15:33:33;102959.38;;;8.31;62.25
44044;BME280;29709;52.396;16.796;2024-01-30T15:36:47;102948.41;;;8.31;62.39
44044;BME280;29709;52.396;16.796;2024-01-30T15:40:01;102950.82;;;8.23;62.24
44044;BME280;29709;52.396;16.796;2024-01-30T15:43:15;102949.93;;;8.08;62.37
44044;BME280;29709;52.396;16.796;2024-01-30T15:46:28;102950.24;;;8.04;62.45
44044;BME280;29709;52.396;16.796;2024-01-30T15:49:41;102945.55;;;8.06;62.76
44044;BME280;29709;52.396;16.796;2024-01-30T15:52:55;102941.16;;;8.03;62.88
44044;BME280;29709;52.396;16.796;2024-01-30T15:56:08;102930.02;;;7.92;62.84
44044;BME280;29709;52.396;16.796;2024-01-30T15:59:21;102930.32;;;7.73;63.45
44044;BME280;29709;52.396;16.796;2024-01-30T16:02:34;102933.23;;;7.70;63.43
44044;BME280;29709;52.396;16.796;2024-01-30T16:05:48;102937.04;;;7.68;63.61
44044;BME280;29709;52.396;16.796;2024-01-30T16:09:01;102927.76;;;7.56;63.53
44044;BME280;29709;52.396;16.796;2024-01-30T16:12:16;102935.09;;;7.41;64.17
44044;BME280;29709;52.396;16.796;2024-01-30T16:15:30;102931.37;;;7.42;64.52
44044;BME280;29709;52.396;16.796;2024-01-30T16:18:43;102932.52;;;7.38;64.48
44044;BME280;29709;52.396;16.796;2024-01-30T16:21:56;102926.67;;;7.30;64.72
44044;BME280;29709;52.396;16.796;2024-01-30T16:25:10;102936.02;;;7.26;64.84
44044;BME280;29709;52.396;16.796;2024-01-30T16:28:25;102933.29;;;7.26;64.87
44044;BME280;29709;52.396;16.796;2024-01-30T16:31:39;102934.55;;;7.20;64.68
44044;BME280;29709;52.396;16.796;2024-01-30T16:34:52;102933.05;;;7.01;65.40
44044;BME280;29709;52.396;16.796;2024-01-30T16:38:06;102940.14;;;6.89;66.07
44044;BME280;29709;52.396;16.796;2024-01-30T16:41:21;102941.47;;;6.82;66.18
44044;BME280;29709;52.396;16.796;2024-01-30T16:44:34;102941.56;;;6.80;66.54
44044;BME280;29709;52.396;16.796;2024-01-30T16:47:48;102937.33;;;6.75;66.71
44044;BME280;29709;52.396;16.796;2024-01-30T16:51:01;102938.30;;;6.74;66.51
44044;BME280;29709;52.396;16.796;2024-01-30T16:54:15;102926.70;;;6.70;67.34
44044;BME280;29709;52.396;16.796;2024-01-30T16:57:28;102928.11;;;6.61;65.97
44044;BME280;29709;52.396;16.796;2024-01-30T17:00:41;102918.88;;;6.48;66.21
44044;BME280;29709;52.396;16.796;2024-01-30T17:03:54;102922.34;;;6.36;66.33
44044;BME280;29709;52.396;16.796;2024-01-30T17:07:08;102927.36;;;6.28;67.51
44044;BME280;29709;52.396;16.796;2024-01-30T17:10:21;102921.90;;;6.28;67.73
44044;BME280;29709;52.396;16.796;2024-01-30T17:13:36;102910.98;;;6.28;67.71
44044;BME280;29709;52.396;16.796;2024-01-30T17:20:38;102918.88;;;6.32;68.20
44044;BME280;29709;52.396;16.796;2024-01-30T17:23:52;102915.80;;;6.39;67.92
44044;BME280;29709;52.396;16.796;2024-01-30T17:27:05;102907.34;;;6.43;68.26